To NAV CANADA Home Page Login to a new session Search on AWWS site Disclaimer Vers la page française équivalente Tips FAQ What's new on the site To the Forecasts and Observations / NOTAM section To "File a Flight Plan" website Publications and other links Update of the User's profile FIC Telephone Numbers My Weather Data Folder Route Weather Data Regional Weather Data Local Weather Data To the Forecasts and Observations / NOTAM section
Request Generated 10/21/2018 at 06:12:49 UTC . Weather information available at that time is displayed.

METAR/TAF

PRINCE GEORGE/BC    (show WxCam)

METAR CYXS 210600Z AUTO VRB02KT 9SM CLR M01/M05 A3019 RMK SLP248=
METAR CYXS 210500Z AUTO 19004KT 9SM CLR M00/M04 A3018 RMK SLP247=
METAR CYXS 210400Z AUTO 24004KT 9SM CLR M01/M05 A3017 RMK SLP246=

TAF CYXS 210038Z 2101/2113 24007KT P6SM FEW140 SCT240
BECMG 2102/2104 VRB03KT
RMK FCST BASED ON AUTO OBS. NXT FCST BY 210700Z=
Your time UTC time
Weather data provided by Environment Canada and NAV CANADA